Time;durP1;ratioP1;P1;durP2;ratioP2;P2;SDS_P1;SDS_P2;PMS_P1;PMS_P2;Temp;Humidity;BMP_temperature;BMP_pressure;BME280_temperature;BME280_humidity;BME280_pressure;Samples;Min_cycle;Max_cycle;Signal;HPM_P1;HPM_P2
2023/09/01 00:01:05;;;;;;;1.48;0.68;;;;;;;15.80;91.34;100364.72;5032721;28;20021;-68
2023/09/01 00:04:06;;;;;;;0.80;0.63;;;;;;;15.79;91.58;100352.34;5021241;28;20045;-67
2023/09/01 00:06:32;;;;;;;1.00;0.50;;;;;;;15.78;91.33;100367.06;5049616;28;20056;-68
2023/09/01 00:08:57;;;;;;;0.60;0.43;;;;;;;15.76;91.32;100370.19;5050459;28;20028;-68
2023/09/01 00:11:23;;;;;;;1.23;0.82;;;;;;;15.73;91.39;100368.28;5047351;28;20090;-66
2023/09/01 00:13:48;;;;;;;1.13;0.73;;;;;;;15.61;91.47;100371.44;5027937;28;20154;-68
2023/09/01 00:16:14;;;;;;;0.85;0.50;;;;;;;15.60;91.99;100380.72;5023982;28;20032;-68
2023/09/01 00:18:39;;;;;;;0.85;0.35;;;;;;;15.59;91.48;100376.47;5022430;28;20032;-68
2023/09/01 00:21:05;;;;;;;0.32;0.30;;;;;;;15.61;92.12;100381.50;5024110;28;20120;-68
2023/09/01 00:23:31;;;;;;;3.95;0.68;;;;;;;15.70;91.61;100377.19;5039761;28;20128;-68
2023/09/01 00:25:58;;;;;;;1.48;0.60;;;;;;;15.71;91.54;100378.75;5043150;28;20383;-68
2023/09/01 00:28:27;;;;;;;1.38;0.80;;;;;;;15.61;92.03;100382.28;5038359;28;20041;-67
2023/09/01 00:30:54;;;;;;;1.17;0.60;;;;;;;15.58;92.37;100380.34;5032549;28;20087;-69
2023/09/01 00:33:20;;;;;;;1.13;0.73;;;;;;;15.55;92.38;100380.38;5038844;28;20037;-67
2023/09/01 00:35:45;;;;;;;1.20;0.60;;;;;;;15.53;92.94;100383.47;5041830;28;20037;-68
2023/09/01 00:38:13;;;;;;;0.45;0.45;;;;;;;15.58;92.93;100380.34;5044742;28;20029;-68
2023/09/01 00:40:39;;;;;;;1.27;0.82;;;;;;;15.64;92.52;100372.59;5028437;28;20576;-68
2023/09/01 00:43:04;;;;;;;2.63;0.88;;;;;;;15.63;92.89;100374.53;5045190;28;20120;-67
2023/09/01 00:45:29;;;;;;;0.82;0.68;;;;;;;15.66;93.03;100379.16;5029022;28;20061;-68
2023/09/01 00:47:57;;;;;;;1.08;0.43;;;;;;;15.72;93.18;100374.84;5025894;28;20116;-68
2023/09/01 00:50:23;;;;;;;1.25;0.70;;;;;;;15.80;92.96;100386.44;5052785;28;20167;-68
2023/09/01 00:52:48;;;;;;;5.82;0.85;;;;;;;15.85;92.63;100377.91;5050341;28;20041;-67
2023/09/01 00:55:14;;;;;;;0.98;0.50;;;;;;;15.90;92.68;100377.47;5025094;28;20119;-68
2023/09/01 00:57:39;;;;;;;1.35;0.88;;;;;;;15.88;92.58;100383.31;5031349;28;19968;-68
2023/09/01 01:00:05;;;;;;;0.75;0.60;;;;;;;15.89;93.01;100384.84;5053605;28;20112;-69
2023/09/01 01:02:32;;;;;;;1.10;0.77;;;;;;;15.92;93.14;100384.06;5030819;28;20021;-69
2023/09/01 01:05:18;;;;;;;1.17;0.60;;;;;;;15.93;93.32;100371.28;5035764;28;20028;-68
2023/09/01 01:08:05;;;;;;;0.82;0.70;;;;;;;15.98;93.01;100365.41;4946101;29;20044;-68
2023/09/01 01:10:52;;;;;;;1.27;0.70;;;;;;;15.98;93.09;100376.28;4943511;28;20167;-66
2023/09/01 01:13:20;;;;;;;2.15;1.00;;;;;;;16.00;92.93;100368.50;4947627;29;20050;-68
2023/09/01 01:15:50;;;;;;;0.80;0.75;;;;;;;15.96;92.79;100360.38;4940760;28;20195;-68
2023/09/01 01:18:18;;;;;;;0.80;0.70;;;;;;;15.96;92.71;100360.38;4952084;29;20062;-68
2023/09/01 01:20:46;;;;;;;1.58;0.63;;;;;;;15.94;92.72;100360.00;4949819;28;20137;-68
2023/09/01 01:23:17;;;;;;;0.95;0.68;;;;;;;15.92;92.92;100354.19;4934311;29;20027;-68
2023/09/01 01:25:49;;;;;;;2.07;0.73;;;;;;;15.91;92.93;100363.50;4951289;28;20043;-68
2023/09/01 01:28:15;;;;;;;1.45;0.90;;;;;;;15.91;93.10;100363.50;4952675;29;20035;-67
2023/09/01 01:30:42;;;;;;;1.45;0.68;;;;;;;15.85;93.40;100354.22;4952969;28;20039;-68
2023/09/01 01:33:35;;;;;;;0.95;0.50;;;;;;;15.83;93.32;100359.28;4944717;29;20385;-67
2023/09/01 01:36:20;;;;;;;1.88;0.98;;;;;;;15.82;92.98;100368.59;4952691;28;20043;-67
2023/09/01 01:38:52;;;;;;;1.05;0.73;;;;;;;15.76;93.17;100370.19;4950384;29;20146;-67
2023/09/01 01:41:27;;;;;;;0.55;0.52;;;;;;;15.76;93.29;100363.97;4948949;29;20039;-68
2023/09/01 01:43:57;;;;;;;0.80;0.43;;;;;;;15.76;92.92;100361.25;4946073;28;20049;-67
2023/09/01 01:46:25;;;;;;;0.90;0.40;;;;;;;15.73;93.20;100360.13;5042748;28;20037;-67
2023/09/01 01:48:50;;;;;;;1.42;0.63;;;;;;;15.71;93.25;100359.75;5021954;28;20025;-67
2023/09/01 01:51:16;;;;;;;0.65;0.50;;;;;;;15.70;92.70;100365.59;5048347;28;20040;-67
2023/09/01 01:53:42;;;;;;;0.70;0.60;;;;;;;15.60;93.13;100359.00;5050377;28;20025;-67
2023/09/01 01:56:08;;;;;;;0.77;0.50;;;;;;;15.59;93.32;100373.78;5051430;28;20036;-67
2023/09/01 01:58:33;;;;;;;1.70;0.75;;;;;;;15.63;93.15;100379.97;5033394;28;20113;-67
2023/09/01 02:01:05;;;;;;;1.33;1.10;;;;;;;15.60;93.20;100372.59;5027380;28;20538;-66
2023/09/01 02:03:31;;;;;;;3.53;0.65;;;;;;;15.58;92.73;100374.16;5027357;28;20079;-67
2023/09/01 02:05:56;;;;;;;0.98;0.43;;;;;;;15.53;93.27;100378.06;5028035;28;20114;-67
2023/09/01 02:08:22;;;;;;;2.28;1.00;;;;;;;15.56;92.80;100380.00;5038701;28;20088;-67
2023/09/01 02:10:48;;;;;;;0.50;0.50;;;;;;;15.56;92.94;100384.66;5039801;28;20021;-67
2023/09/01 02:13:14;;;;;;;2.67;0.60;;;;;;;15.52;93.16;100387.38;5039451;28;20056;-67
2023/09/01 02:15:40;;;;;;;0.88;0.68;;;;;;;15.51;93.29;100391.25;5035428;28;20111;-67
2023/09/01 02:18:08;;;;;;;2.50;0.85;;;;;;;15.48;93.12;100392.06;5025721;28;20109;-67
2023/09/01 02:20:37;;;;;;;0.65;0.40;;;;;;;15.51;93.07;100390.47;5038916;28;20029;-67
2023/09/01 02:23:02;;;;;;;3.67;1.08;;;;;;;15.47;93.46;100393.19;5026356;28;20504;-67
2023/09/01 02:25:35;;;;;;;1.08;0.70;;;;;;;15.46;93.41;100397.09;5020732;28;20026;-67
2023/09/01 02:28:04;;;;;;;0.98;0.60;;;;;;;15.49;93.27;100393.59;5030416;28;20032;-67
2023/09/01 02:30:30;;;;;;;1.00;0.50;;;;;;;15.49;93.00;100403.66;5046564;28;20073;-67
2023/09/01 02:32:56;;;;;;;0.38;0.30;;;;;;;15.46;93.09;100402.53;5039509;28;20552;-67
2023/09/01 02:35:21;;;;;;;1.50;0.45;;;;;;;15.39;93.15;100399.78;5035890;28;20047;-67
2023/09/01 02:37:49;;;;;;;0.57;0.45;;;;;;;15.34;93.67;100402.91;5033469;28;20432;-67
2023/09/01 02:40:15;;;;;;;0.55;0.40;;;;;;;15.37;93.50;100405.63;5032859;28;20091;-67
2023/09/01 02:42:41;;;;;;;0.68;0.60;;;;;;;15.39;93.13;100407.94;5034847;28;20029;-67
2023/09/01 02:45:12;;;;;;;3.13;0.90;;;;;;;15.42;93.39;100409.91;5044620;28;20041;-67
2023/09/01 02:47:38;;;;;;;0.50;0.50;;;;;;;15.41;93.09;100413.00;5045513;28;20029;-66
2023/09/01 02:50:04;;;;;;;0.90;0.52;;;;;;;15.42;93.07;100399.03;5050483;28;20036;-67
2023/09/01 02:52:31;;;;;;;0.55;0.50;;;;;;;15.41;93.14;100402.13;5031279;28;20037;-67
2023/09/01 02:54:56;;;;;;;0.80;0.60;;;;;;;15.38;93.05;100399.03;5038157;28;20037;-67
2023/09/01 02:57:22;;;;;;;2.72;0.50;;;;;;;15.36;93.19;100392.44;5043900;28;20036;-67
2023/09/01 02:59:48;;;;;;;1.25;0.40;;;;;;;15.29;93.29;100400.63;5040861;28;20037;-67
2023/09/01 03:02:13;;;;;;;5.15;0.70;;;;;;;15.31;93.18;100398.28;5043717;28;20082;-67
2023/09/01 03:04:38;;;;;;;3.33;0.65;;;;;;;15.30;93.18;100394.78;5029794;28;20401;-67
2023/09/01 03:07:04;;;;;;;0.77;0.75;;;;;;;15.29;93.41;100400.63;5021881;28;20035;-67
2023/09/01 03:09:30;;;;;;;0.25;0.25;;;;;;;15.26;93.32;100406.81;5032461;28;20075;-67
2023/09/01 03:11:58;;;;;;;1.98;0.60;;;;;;;15.25;93.49;100408.00;5028572;28;20098;-67
2023/09/01 03:14:24;;;;;;;0.38;0.38;;;;;;;15.22;93.39;100404.13;5026952;28;20037;-67
2023/09/01 03:16:50;;;;;;;0.73;0.57;;;;;;;15.22;93.18;100406.03;5032313;28;20095;-67
2023/09/01 03:19:16;;;;;;;1.23;0.85;;;;;;;15.23;93.30;100410.31;5027621;28;20037;-67
2023/09/01 03:21:44;;;;;;;0.40;0.40;;;;;;;15.20;93.68;100408.38;5022120;28;20037;-67
2023/09/01 03:24:09;;;;;;;1.13;0.65;;;;;;;15.21;93.23;100402.56;5024290;28;20394;-67
2023/09/01 03:26:35;;;;;;;1.92;0.38;;;;;;;15.19;93.54;100402.16;5026564;28;20028;-67
2023/09/01 03:29:02;;;;;;;0.85;0.45;;;;;;;15.17;93.67;100398.31;5024673;28;20033;-67
2023/09/01 03:31:28;;;;;;;0.47;0.40;;;;;;;15.19;93.40;100402.16;5023798;28;20501;-67
2023/09/01 03:33:57;;;;;;;1.60;0.77;;;;;;;15.15;94.08;100406.06;5029180;28;20021;-67
2023/09/01 03:36:23;;;;;;;0.70;0.45;;;;;;;15.16;93.75;100404.91;5031844;28;20102;-67
2023/09/01 03:38:49;;;;;;;0.50;0.50;;;;;;;15.13;93.91;100411.91;5039253;28;20037;-67
2023/09/01 03:41:14;;;;;;;1.88;0.57;;;;;;;15.06;93.95;100414.59;5043688;28;20040;-67
2023/09/01 03:43:40;;;;;;;0.47;0.45;;;;;;;15.03;93.71;100420.03;5028129;28;20520;-67
2023/09/01 03:46:05;;;;;;;0.95;0.70;;;;;;;14.98;94.05;100423.16;5045510;28;20063;-67
2023/09/01 03:48:51;;;;;;;1.55;0.80;;;;;;;14.86;93.96;100416.19;5043301;28;20029;-67
2023/09/01 03:51:17;;;;;;;0.65;0.60;;;;;;;14.86;94.47;100412.72;4948135;29;20050;-67
2023/09/01 03:53:43;;;;;;;3.60;0.65;;;;;;;14.84;94.23;100412.31;4944599;29;20047;-67
2023/09/01 03:56:12;;;;;;;0.88;0.60;;;;;;;14.81;94.42;100415.78;4945106;29;20043;-66
2023/09/01 03:58:39;;;;;;;0.93;0.52;;;;;;;14.85;94.11;100414.63;4947276;29;20445;-66
2023/09/01 04:01:11;;;;;;;0.65;0.60;;;;;;;14.83;93.97;100410.75;4945794;29;20078;-66
2023/09/01 04:03:41;;;;;;;2.05;0.85;;;;;;;14.82;94.29;100401.09;4941122;29;20127;-66
2023/09/01 04:06:07;;;;;;;1.35;0.50;;;;;;;14.77;94.28;100404.97;4942953;29;20034;-66
2023/09/01 04:08:34;;;;;;;0.98;0.60;;;;;;;14.81;93.96;100405.72;4943805;29;20055;-67
2023/09/01 04:11:00;;;;;;;3.95;1.83;;;;;;;14.78;94.03;100403.81;4951767;28;20055;-67
2023/09/01 04:13:25;;;;;;;0.73;0.50;;;;;;;14.73;94.02;100408.84;4946473;28;20106;-66
2023/09/01 04:15:51;;;;;;;0.43;0.30;;;;;;;14.78;94.14;100411.16;4951434;28;20106;-67
2023/09/01 04:18:20;;;;;;;1.63;0.40;;;;;;;14.77;93.89;100415.81;4947759;29;20046;-67
2023/09/01 04:20:49;;;;;;;1.25;0.60;;;;;;;14.76;93.72;100418.91;4955522;29;20039;-67
2023/09/01 04:23:15;;;;;;;0.60;0.60;;;;;;;14.73;93.99;100422.41;4956475;28;20039;-67
2023/09/01 04:25:45;;;;;;;1.30;0.70;;;;;;;14.72;93.80;100432.47;4953230;29;20544;-67
2023/09/01 04:28:13;;;;;;;0.40;0.35;;;;;;;14.72;93.45;100420.84;4985729;28;20037;-67
2023/09/01 04:30:39;;;;;;;0.68;0.50;;;;;;;14.62;93.99;100421.63;5035901;28;20137;-67
2023/09/01 04:33:05;;;;;;;1.33;0.68;;;;;;;14.62;93.87;100421.63;5036225;28;20123;-66
2023/09/01 04:35:31;;;;;;;0.65;0.60;;;;;;;14.60;93.87;100432.06;5033908;28;20032;-67
2023/09/01 04:37:56;;;;;;;2.60;0.52;;;;;;;14.64;93.83;100435.56;5041647;28;20028;-67
2023/09/01 04:40:22;;;;;;;1.42;0.80;;;;;;;14.60;93.64;100435.56;5036794;28;20427;-67
2023/09/01 04:42:47;;;;;;;1.23;0.80;;;;;;;14.58;94.00;100427.03;5056595;28;20113;-67
2023/09/01 04:45:13;;;;;;;1.17;0.65;;;;;;;14.62;93.86;100430.53;5029832;28;20051;-67
2023/09/01 04:47:39;;;;;;;1.55;0.85;;;;;;;14.67;94.28;100432.88;5039065;28;20456;-68
2023/09/01 04:50:05;;;;;;;1.92;0.70;;;;;;;14.70;93.66;100437.50;5041063;28;20037;-67
2023/09/01 04:52:30;;;;;;;0.55;0.32;;;;;;;14.69;94.09;100435.19;5039704;28;20032;-68
2023/09/01 04:54:56;;;;;;;0.70;0.47;;;;;;;14.71;94.21;100436.31;5031678;28;20539;-68
2023/09/01 04:57:21;;;;;;;0.60;0.60;;;;;;;14.73;93.67;100436.72;5030168;28;20112;-66
2023/09/01 04:59:48;;;;;;;0.63;0.50;;;;;;;14.73;93.89;100444.09;5035091;28;20029;-68
2023/09/01 05:02:14;;;;;;;0.60;0.50;;;;;;;14.69;94.14;100454.16;5030683;28;20770;-67
2023/09/01 05:05:00;;;;;;;1.10;0.73;;;;;;;14.71;94.25;100449.88;5034689;28;20068;-67
2023/09/01 05:07:25;;;;;;;1.55;1.17;;;;;;;14.71;94.30;100449.88;4980705;28;20052;-67
2023/09/01 05:09:51;;;;;;;1.35;0.70;;;;;;;14.72;94.50;100451.44;4993573;28;20034;-67
2023/09/01 05:12:16;;;;;;;2.47;0.88;;;;;;;14.74;94.27;100448.34;4989737;28;21000;-68
2023/09/01 05:14:42;;;;;;;0.65;0.47;;;;;;;14.71;94.55;100458.00;4984903;28;20041;-68
2023/09/01 05:17:07;;;;;;;0.68;0.55;;;;;;;14.77;94.86;100461.13;4975330;28;20038;-68
2023/09/01 05:19:33;;;;;;;0.95;0.70;;;;;;;14.78;94.59;100463.47;4976449;28;20034;-68
2023/09/01 05:21:58;;;;;;;1.23;0.65;;;;;;;14.77;94.60;100464.59;4993235;28;20519;-68
2023/09/01 05:24:24;;;;;;;1.63;0.70;;;;;;;14.81;94.80;100475.44;4988403;28;20125;-68
2023/09/01 05:26:49;;;;;;;1.77;0.60;;;;;;;14.82;94.72;100468.88;4983082;28;20042;-68
2023/09/01 05:29:14;;;;;;;1.10;0.60;;;;;;;14.85;94.72;100473.50;4981703;28;20025;-68
2023/09/01 05:31:40;;;;;;;0.60;0.60;;;;;;;14.90;94.94;100470.44;4964449;28;20062;-64
2023/09/01 05:34:06;;;;;;;5.13;0.90;;;;;;;14.92;94.80;100474.31;4972622;28;20049;-67
2023/09/01 05:36:36;;;;;;;1.77;0.90;;;;;;;14.96;94.77;100477.00;4990002;28;20031;-67
2023/09/01 05:39:23;;;;;;;5.33;1.57;;;;;;;15.02;94.70;100472.75;4986729;28;20140;-67
2023/09/01 05:41:48;;;;;;;2.15;0.93;;;;;;;15.07;94.58;100477.78;4933457;29;20291;-67
2023/09/01 05:44:14;;;;;;;0.73;0.60;;;;;;;15.10;94.75;100479.69;4954149;28;20424;-67
2023/09/01 05:46:39;;;;;;;2.08;0.88;;;;;;;15.19;94.61;100477.38;4949412;28;20133;-67
2023/09/01 05:49:05;;;;;;;1.02;0.57;;;;;;;15.25;94.39;100482.00;4945302;28;20030;-68
2023/09/01 05:51:31;;;;;;;1.48;0.90;;;;;;;15.30;94.36;100484.34;4946217;28;20033;-66
2023/09/01 05:53:56;;;;;;;1.02;0.75;;;;;;;15.32;94.38;100486.66;4963811;28;20512;-67
2023/09/01 05:56:21;;;;;;;1.13;0.90;;;;;;;15.40;94.67;100490.91;4968197;28;20122;-68
2023/09/01 05:58:47;;;;;;;0.55;0.55;;;;;;;15.46;94.81;100486.66;4980780;28;20034;-68
2023/09/01 06:01:13;;;;;;;0.95;0.70;;;;;;;15.50;94.78;100476.56;4971432;28;20041;-67
2023/09/01 06:03:39;;;;;;;0.55;0.50;;;;;;;15.56;94.91;100490.50;4967929;28;20190;-67
2023/09/01 06:06:06;;;;;;;0.63;0.63;;;;;;;15.61;94.87;100498.25;4965389;28;20035;-66
2023/09/01 06:08:32;;;;;;;2.20;0.70;;;;;;;15.65;94.72;100494.38;4970465;28;20031;-67
2023/09/01 06:11:05;;;;;;;4.22;0.80;;;;;;;15.72;94.61;100501.69;4958269;28;20054;-67
2023/09/01 06:13:31;;;;;;;1.17;0.98;;;;;;;15.76;94.45;100511.38;4974791;28;20051;-67
2023/09/01 06:15:56;;;;;;;0.98;0.88;;;;;;;15.81;94.28;100510.22;4970890;28;20035;-68
2023/09/01 06:18:21;;;;;;;1.48;0.85;;;;;;;15.82;94.96;100507.09;4991582;28;20084;-67
2023/09/01 06:20:47;;;;;;;2.67;0.82;;;;;;;15.88;94.49;100510.19;5050924;28;20385;-68
2023/09/01 06:23:12;;;;;;;1.02;0.73;;;;;;;15.91;94.73;100510.16;5037168;28;20029;-68
2023/09/01 06:25:38;;;;;;;1.08;0.70;;;;;;;15.92;94.25;100514.44;5040039;28;20044;-67
2023/09/01 06:28:03;;;;;;;0.65;0.60;;;;;;;15.95;94.27;100519.09;5048445;28;20048;-68
2023/09/01 06:30:29;;;;;;;2.53;0.90;;;;;;;15.91;94.43;100521.03;5042480;28;20514;-67
2023/09/01 06:33:14;;;;;;;1.25;0.70;;;;;;;15.98;94.86;100521.03;5039490;28;20044;-67
2023/09/01 06:35:40;;;;;;;1.10;0.95;;;;;;;16.07;94.30;100526.03;4930705;29;20067;-67
2023/09/01 06:38:06;;;;;;;3.05;1.42;;;;;;;16.08;94.98;100522.94;4931215;29;20040;-67
2023/09/01 06:40:35;;;;;;;1.00;0.80;;;;;;;16.25;94.71;100524.00;4931559;29;20051;-67
2023/09/01 06:43:02;;;;;;;2.33;0.60;;;;;;;16.49;94.37;100523.13;4928515;29;20042;-68
2023/09/01 06:45:28;;;;;;;1.40;1.10;;;;;;;16.69;94.16;100528.81;4926537;29;20039;-68
2023/09/01 06:47:56;;;;;;;1.48;0.70;;;;;;;16.83;93.43;100531.44;4935306;29;20428;-68
2023/09/01 06:50:24;;;;;;;3.40;0.90;;;;;;;17.06;93.37;100537.09;4932696;29;20039;-66
2023/09/01 06:52:50;;;;;;;0.93;0.70;;;;;;;17.23;93.54;100536.19;4929489;29;20055;-66
2023/09/01 06:55:16;;;;;;;2.80;0.82;;;;;;;17.41;92.36;100541.47;4930941;29;20027;-67
2023/09/01 06:57:42;;;;;;;1.20;0.80;;;;;;;17.60;91.98;100547.13;4931381;29;20146;-66
2023/09/01 07:00:10;;;;;;;1.48;0.88;;;;;;;17.85;91.51;100547.66;4930953;29;20130;-68
2023/09/01 07:02:35;;;;;;;1.42;0.60;;;;;;;18.09;90.70;100542.31;4929632;29;20118;-67
2023/09/01 07:05:02;;;;;;;6.18;1.15;;;;;;;18.24;89.29;100546.41;4928224;29;20118;-67
2023/09/01 07:07:28;;;;;;;1.45;0.73;;;;;;;18.36;89.35;100541.19;4930107;29;20492;-68
2023/09/01 07:09:53;;;;;;;1.33;0.73;;;;;;;18.47;88.93;100535.59;4912197;29;20090;-68
2023/09/01 07:12:18;;;;;;;0.77;0.52;;;;;;;18.56;87.88;100541.34;4967888;28;20063;-65
2023/09/01 07:14:44;;;;;;;1.98;1.00;;;;;;;18.73;87.38;100541.09;5028249;28;20099;-68
2023/09/01 07:17:11;;;;;;;3.38;0.38;;;;;;;18.86;87.26;100550.25;5011495;28;20065;-68
2023/09/01 07:19:36;;;;;;;2.90;0.82;;;;;;;19.07;86.34;100549.13;5050341;28;20032;-68
2023/09/01 07:22:03;;;;;;;0.63;0.30;;;;;;;19.22;85.34;100555.91;5044358;28;20386;-68
2023/09/01 07:24:28;;;;;;;3.67;1.00;;;;;;;19.26;84.62;100553.88;5029774;28;20078;-67
2023/09/01 07:26:54;;;;;;;1.13;0.70;;;;;;;19.37;84.61;100561.94;5044219;28;20036;-68
2023/09/01 07:29:19;;;;;;;0.90;0.57;;;;;;;19.41;84.61;100557.97;5044771;28;20098;-68
2023/09/01 07:31:44;;;;;;;0.43;0.43;;;;;;;19.54;84.16;100558.13;5046834;28;20025;-68
2023/09/01 07:34:10;;;;;;;0.47;0.40;;;;;;;19.65;83.15;100559.47;5028466;28;20064;-68
2023/09/01 07:36:35;;;;;;;3.45;0.80;;;;;;;19.79;82.86;100561.16;5030807;28;20124;-67
2023/09/01 07:39:01;;;;;;;1.25;0.70;;;;;;;19.78;82.08;100565.09;5049876;28;20025;-68
2023/09/01 07:41:27;;;;;;;0.68;0.57;;;;;;;19.92;81.32;100561.34;5046673;28;20036;-67
2023/09/01 07:43:52;;;;;;;0.68;0.68;;;;;;;19.99;80.77;100561.19;5029738;28;20041;-67
2023/09/01 07:46:18;;;;;;;2.42;0.73;;;;;;;20.12;80.58;100570.28;5049655;28;20489;-67
2023/09/01 07:48:43;;;;;;;2.22;0.40;;;;;;;20.34;79.67;100574.19;5049181;28;20060;-68
2023/09/01 07:51:08;;;;;;;2.28;0.50;;;;;;;20.62;78.56;100570.81;5048940;28;20455;-68
2023/09/01 07:53:34;;;;;;;0.68;0.50;;;;;;;20.72;77.73;100578.03;5043116;28;20029;-66
2023/09/01 07:55:59;;;;;;;2.33;0.38;;;;;;;20.94;77.54;100575.56;5043039;28;20405;-68
2023/09/01 07:58:24;;;;;;;1.10;0.38;;;;;;;21.04;76.98;100586.28;5049158;28;20101;-65
2023/09/01 08:00:51;;;;;;;0.40;0.22;;;;;;;21.16;76.49;100588.34;5044223;28;20045;-67
2023/09/01 08:03:17;;;;;;;0.40;0.40;;;;;;;21.29;75.40;100583.72;5029497;28;20079;-66
2023/09/01 08:05:42;;;;;;;1.35;0.30;;;;;;;21.46;74.42;100584.50;5048168;28;20490;-67
2023/09/01 08:08:08;;;;;;;0.28;0.25;;;;;;;21.55;73.34;100592.88;5040331;28;20059;-68
2023/09/01 08:10:34;;;;;;;0.60;0.43;;;;;;;21.63;73.32;100593.47;5043514;28;20020;-67
2023/09/01 08:12:59;;;;;;;0.80;0.40;;;;;;;21.60;73.13;100578.66;5022105;28;20040;-68
2023/09/01 08:15:25;;;;;;;0.38;0.30;;;;;;;21.55;72.16;100585.44;5043706;28;20033;-68
2023/09/01 08:17:52;;;;;;;1.08;0.43;;;;;;;21.43;72.00;100594.34;5048493;28;20021;-67
2023/09/01 08:20:18;;;;;;;1.48;0.50;;;;;;;21.43;72.92;100588.88;5030336;28;20040;-68
2023/09/01 08:22:44;;;;;;;0.10;0.10;;;;;;;21.51;71.60;100603.16;5048557;28;20029;-68
2023/09/01 08:25:09;;;;;;;1.15;0.50;;;;;;;21.57;71.39;100601.44;5044847;28;20025;-67
2023/09/01 08:27:35;;;;;;;1.33;0.22;;;;;;;21.64;70.08;100606.72;5046638;28;20037;-68
2023/09/01 08:30:00;;;;;;;0.70;0.40;;;;;;;21.52;69.33;100599.22;5046907;28;20033;-68
2023/09/01 08:32:26;;;;;;;0.50;0.17;;;;;;;21.39;69.93;100590.13;5047215;28;20061;-67
2023/09/01 08:34:51;;;;;;;0.85;0.25;;;;;;;21.42;70.55;100601.03;5022296;28;20033;-68
2023/09/01 08:37:17;;;;;;;1.65;0.50;;;;;;;21.46;69.49;100612.69;5039956;28;20029;-68
2023/09/01 08:39:43;;;;;;;1.48;0.30;;;;;;;21.44;69.28;100603.34;5047118;28;20036;-68
2023/09/01 08:42:09;;;;;;;0.52;0.40;;;;;;;21.46;68.42;100592.72;5046226;28;20037;-67
2023/09/01 08:44:35;;;;;;;2.05;0.20;;;;;;;21.39;69.45;100598.38;5047154;28;20025;-67
2023/09/01 08:47:01;;;;;;;0.35;0.22;;;;;;;21.58;69.19;100599.47;5048502;28;20049;-67
2023/09/01 08:49:28;;;;;;;0.47;0.20;;;;;;;21.84;69.07;100598.41;5048455;28;20473;-67
2023/09/01 08:51:55;;;;;;;0.70;0.25;;;;;;;22.16;68.54;100599.06;5041410;28;20033;-67
2023/09/01 08:54:21;;;;;;;0.43;0.30;;;;;;;22.43;67.97;100598.72;5049266;28;20027;-67
2023/09/01 08:56:48;;;;;;;0.60;0.35;;;;;;;22.71;66.92;100603.38;5049912;28;20529;-66
2023/09/01 08:59:13;;;;;;;0.82;0.43;;;;;;;22.97;65.34;100607.69;5049810;28;20052;-67
2023/09/01 09:01:38;;;;;;;1.05;0.40;;;;;;;23.18;63.65;100596.03;5047744;28;20033;-67
2023/09/01 09:04:05;;;;;;;0.30;0.30;;;;;;;23.42;63.56;100603.94;5034185;28;20402;-66
2023/09/01 09:06:36;;;;;;;0.17;0.15;;;;;;;23.66;61.84;100602.31;5053525;28;20116;-67
2023/09/01 09:09:07;;;;;;;2.75;0.30;;;;;;;23.90;60.33;100608.94;5048824;28;20036;-66
2023/09/01 09:11:35;;;;;;;1.35;0.40;;;;;;;23.88;59.51;100605.88;5044245;28;20025;-67
2023/09/01 09:14:01;;;;;;;0.13;0.13;;;;;;;23.96;58.52;100609.91;5050818;28;20079;-67
2023/09/01 09:16:26;;;;;;;0.10;0.10;;;;;;;23.97;58.75;100611.44;5049770;28;20114;-65
2023/09/01 09:19:16;;;;;;;1.25;0.25;;;;;;;24.08;59.32;100609.09;5048545;28;20035;-68
2023/09/01 09:21:41;;;;;;;0.20;0.20;;;;;;;24.29;59.34;100607.56;4991870;28;20490;-67
2023/09/01 09:24:07;;;;;;;0.70;0.50;;;;;;;24.41;57.96;100596.47;5000316;28;20038;-67
2023/09/01 09:26:33;;;;;;;0.93;0.30;;;;;;;24.70;57.32;100605.19;4986759;28;20094;-68
2023/09/01 09:29:06;;;;;;;0.35;0.35;;;;;;;24.67;57.00;100611.63;4985335;28;20042;-67
2023/09/01 09:31:44;;;;;;;2.00;0.20;;;;;;;24.82;56.77;100609.88;4975825;28;20062;-67
2023/09/01 09:34:17;;;;;;;0.17;0.13;;;;;;;25.00;56.99;100609.19;4991020;28;20065;-66
2023/09/01 09:36:48;;;;;;;1.15;0.43;;;;;;;25.10;56.27;100608.00;4986445;28;20457;-67
2023/09/01 09:39:26;;;;;;;0.25;0.20;;;;;;;25.13;55.41;100606.28;4989456;28;20046;-65
2023/09/01 09:41:53;;;;;;;0.40;0.20;;;;;;;25.25;55.84;100606.19;4989331;28;20072;-65
2023/09/01 09:44:31;;;;;;;0.43;0.20;;;;;;;25.42;55.35;100613.00;4995336;28;20033;-67
2023/09/01 09:46:57;;;;;;;0.50;0.17;;;;;;;25.54;55.24;100606.56;4990702;28;20388;-67
2023/09/01 09:49:23;;;;;;;0.22;0.17;;;;;;;25.74;55.13;100617.19;4976630;28;20069;-67
2023/09/01 09:51:51;;;;;;;2.88;0.32;;;;;;;25.83;54.11;100609.66;4985073;28;20050;-66
2023/09/01 09:54:23;;;;;;;0.35;0.30;;;;;;;25.74;53.42;100617.19;4996853;28;20046;-67
2023/09/01 09:56:50;;;;;;;0.35;0.20;;;;;;;26.09;52.86;100620.41;4986146;28;20458;-67
2023/09/01 09:59:26;;;;;;;0.95;0.40;;;;;;;26.15;52.58;100615.81;5023688;28;20032;-66
2023/09/01 10:01:54;;;;;;;0.30;0.10;;;;;;;26.20;53.17;100615.94;5045255;28;20120;-66
2023/09/01 10:04:20;;;;;;;1.65;0.30;;;;;;;26.22;53.24;100621.78;5047052;28;20040;-67
2023/09/01 10:06:46;;;;;;;0.75;0.30;;;;;;;26.38;53.01;100621.47;5046906;28;20032;-68
2023/09/01 10:09:13;;;;;;;4.10;0.15;;;;;;;26.41;52.72;100628.81;5028465;28;20032;-67
2023/09/01 10:11:40;;;;;;;0.40;0.30;;;;;;;26.52;51.98;100622.78;5048605;28;20039;-68
2023/09/01 10:14:07;;;;;;;0.30;0.20;;;;;;;26.57;51.60;100614.66;5046871;28;20024;-67
2023/09/01 10:16:33;;;;;;;1.33;0.15;;;;;;;26.29;51.81;100621.47;5044385;28;20059;-68
2023/09/01 10:18:59;;;;;;;0.40;0.10;;;;;;;26.47;52.01;100613.13;5033022;28;20282;-66
2023/09/01 10:21:24;;;;;;;0.57;0.38;;;;;;;26.51;51.54;100621.25;5027127;28;20028;-67
2023/09/01 10:23:50;;;;;;;0.40;0.38;;;;;;;26.60;51.18;100633.06;5048134;28;20390;-67
2023/09/01 10:26:38;;;;;;;0.20;0.20;;;;;;;26.64;51.19;100633.66;5050094;28;20013;-67
2023/09/01 10:29:04;;;;;;;1.10;0.38;;;;;;;26.28;52.07;100636.50;4943471;28;20047;-67
2023/09/01 10:31:36;;;;;;;0.32;0.20;;;;;;;26.08;51.67;100638.19;4952688;28;20057;-67
2023/09/01 10:34:08;;;;;;;0.70;0.15;;;;;;;26.07;51.51;100636.69;4969121;28;20054;-67
2023/09/01 10:36:38;;;;;;;2.20;0.32;;;;;;;26.12;52.54;100631.31;4970381;28;20057;-68
2023/09/01 10:39:24;;;;;;;0.50;0.25;;;;;;;26.30;52.56;100638.81;4968074;28;20118;-67
2023/09/01 10:41:50;;;;;;;0.65;0.30;;;;;;;26.37;51.92;100639.25;4964129;28;20047;-68
2023/09/01 10:44:16;;;;;;;0.43;0.17;;;;;;;26.34;51.89;100636.66;4962172;28;20606;-67
2023/09/01 10:46:41;;;;;;;2.17;0.30;;;;;;;26.34;50.91;100642.19;4964646;28;20046;-66
2023/09/01 10:49:09;;;;;;;1.17;0.40;;;;;;;26.17;52.54;100633.44;4968606;28;20041;-66
2023/09/01 10:51:43;;;;;;;0.32;0.20;;;;;;;25.99;53.06;100641.72;4968096;28;20486;-66
2023/09/01 10:54:14;;;;;;;0.50;0.30;;;;;;;25.96;52.17;100639.13;4967197;28;20187;-66
2023/09/01 10:56:59;;;;;;;0.47;0.40;;;;;;;26.10;50.87;100644.03;4967522;28;20082;-66
2023/09/01 10:59:29;;;;;;;0.63;0.20;;;;;;;26.09;50.10;100637.75;4969262;28;20058;-66
2023/09/01 11:01:54;;;;;;;0.43;0.30;;;;;;;25.90;51.13;100625.13;4949098;28;20050;-66
2023/09/01 11:04:24;;;;;;;1.40;0.30;;;;;;;25.75;51.60;100635.25;4966969;28;20034;-66
2023/09/01 11:06:59;;;;;;;1.30;0.30;;;;;;;25.57;51.75;100630.47;5028082;28;20037;-66
2023/09/01 11:09:33;;;;;;;0.22;0.20;;;;;;;25.36;52.10;100636.84;5043677;28;20025;-66
2023/09/01 11:12:03;;;;;;;0.95;0.22;;;;;;;25.27;52.30;100638.81;5049854;28;20462;-66
2023/09/01 11:14:29;;;;;;;0.30;0.20;;;;;;;25.30;52.63;100643.44;5046493;28;20408;-66
2023/09/01 11:16:55;;;;;;;3.17;0.40;;;;;;;25.14;52.59;100643.69;5042558;28;20033;-66
2023/09/01 11:19:20;;;;;;;3.92;0.40;;;;;;;25.17;52.43;100646.28;5028932;28;20490;-66
2023/09/01 11:21:47;;;;;;;0.10;0.10;;;;;;;25.12;51.91;100646.91;5044105;28;20029;-66
2023/09/01 11:24:12;;;;;;;0.55;0.25;;;;;;;25.13;52.25;100648.44;5044280;28;20037;-66
2023/09/01 11:26:41;;;;;;;4.40;0.10;;;;;;;25.17;51.68;100654.56;5033337;28;20037;-66